Time;durP1;ratioP1;P1;durP2;ratioP2;P2;SDS_P1;SDS_P2;PMS_P1;PMS_P2;Temp;Humidity;BMP_temperature;BMP_pressure;BME280_temperature;BME280_humidity;BME280_pressure;Samples;Min_cycle;Max_cycle;Signal;HPM_P1;HPM_P2
2023/08/15 00:02:09;;;;;;;12.50;9.90;;;;;;;19.16;72.93;99115.77;221473;1305;22594;-74
2023/08/15 00:07:11;;;;;;;12.80;10.30;;;;;;;19.10;73.13;99115.73;221520;1305;25917;-73
2023/08/15 00:12:13;;;;;;;15.60;10.80;;;;;;;19.04;73.25;99119.14;221613;1305;22559;-73
2023/08/15 00:17:15;;;;;;;11.80;10.00;;;;;;;18.97;73.54;99119.30;221618;1302;22597;-73
2023/08/15 00:22:17;;;;;;;13.20;10.70;;;;;;;18.90;73.79;99113.09;221573;1299;22621;-73
2023/08/15 00:27:19;;;;;;;11.40;9.90;;;;;;;18.82;74.09;99115.98;221591;1301;22568;-73
2023/08/15 00:32:21;;;;;;;29.90;12.40;;;;;;;18.75;74.26;99120.34;221606;1290;22580;-73
2023/08/15 00:37:23;;;;;;;13.50;11.50;;;;;;;18.68;74.63;99113.89;221519;1304;22647;-73
2023/08/15 00:42:26;;;;;;;12.50;11.10;;;;;;;18.62;74.70;99109.41;221568;1301;22585;-73
2023/08/15 00:47:29;;;;;;;15.10;10.70;;;;;;;18.58;74.94;99105.17;221567;1298;22740;-73
2023/08/15 00:52:32;;;;;;;11.20;9.70;;;;;;;18.57;74.99;99105.13;221447;1300;22739;-73
2023/08/15 00:57:34;;;;;;;12.80;10.30;;;;;;;18.59;75.11;99106.50;221270;1304;22576;-73
2023/08/15 01:02:36;;;;;;;14.40;10.40;;;;;;;18.61;75.19;99109.23;221519;1304;22579;-74
2023/08/15 01:07:40;;;;;;;12.30;10.50;;;;;;;18.61;75.23;99105.59;221295;1292;22570;-72
2023/08/15 01:13:03;;;;;;;15.60;11.20;;;;;;;18.59;75.32;99102.86;221535;1303;22576;-73
2023/08/15 01:18:19;;;;;;;11.80;10.40;;;;;;;18.55;75.46;99102.04;221504;1303;22569;-73
2023/08/15 01:23:30;;;;;;;12.30;10.30;;;;;;;18.50;75.54;99101.92;221638;1302;22567;-74
2023/08/15 01:28:32;;;;;;;14.30;10.40;;;;;;;18.47;75.60;99098.15;221524;1304;23363;-74
2023/08/15 01:33:39;;;;;;;14.90;11.00;;;;;;;18.45;75.74;99098.51;221576;1298;22569;-74
2023/08/15 01:38:54;;;;;;;16.80;13.10;;;;;;;18.44;75.94;99100.09;221331;1301;22568;-74
2023/08/15 01:43:57;;;;;;;17.70;12.70;;;;;;;18.43;76.13;99094.51;221470;1304;25262;-74
2023/08/15 01:48:59;;;;;;;14.80;11.40;;;;;;;18.41;76.14;99094.79;221576;1304;25428;-74
2023/08/15 01:54:02;;;;;;;18.30;12.60;;;;;;;18.40;76.28;99090.42;221626;1301;22568;-74
2023/08/15 01:59:04;;;;;;;15.80;13.00;;;;;;;18.40;76.46;99091.17;221325;1285;22590;-74
2023/08/15 02:04:06;;;;;;;15.60;11.80;;;;;;;18.38;76.53;99090.17;221453;1304;23060;-73
2023/08/15 02:09:09;;;;;;;15.10;11.20;;;;;;;18.33;76.55;99092.98;221606;1302;22600;-74
2023/08/15 02:14:11;;;;;;;11.80;10.50;;;;;;;18.28;76.61;99097.09;221386;1302;22578;-73
2023/08/15 02:19:13;;;;;;;12.90;11.10;;;;;;;18.23;76.55;99091.95;221549;1305;22569;-74
2023/08/15 02:24:15;;;;;;;11.60;10.40;;;;;;;18.18;76.81;99091.45;221562;1298;22595;-73
2023/08/15 02:29:17;;;;;;;13.80;10.60;;;;;;;18.14;76.91;99089.73;221548;1283;25278;-73
2023/08/15 02:34:19;;;;;;;15.60;10.90;;;;;;;18.12;77.08;99088.48;221516;1306;24870;-73
2023/08/15 02:39:21;;;;;;;11.70;10.30;;;;;;;18.12;77.22;99086.40;221529;1292;22569;-74
2023/08/15 02:44:23;;;;;;;12.50;10.70;;;;;;;18.11;77.28;99084.73;221518;1305;22550;-73
2023/08/15 02:49:25;;;;;;;12.50;10.50;;;;;;;18.09;77.27;99090.32;221533;1298;22588;-74
2023/08/15 02:54:27;;;;;;;11.60;10.10;;;;;;;18.07;77.35;99089.49;221560;1302;22565;-74
2023/08/15 02:59:29;;;;;;;12.40;9.80;;;;;;;18.01;77.41;99091.36;221528;1304;24270;-74
2023/08/15 03:04:31;;;;;;;13.50;11.20;;;;;;;17.95;77.41;99090.43;221598;1302;22589;-73
2023/08/15 03:09:33;;;;;;;11.40;10.30;;;;;;;17.90;77.60;99094.96;221598;1301;22578;-73
2023/08/15 03:14:35;;;;;;;14.90;10.70;;;;;;;17.83;77.60;99089.04;221516;1304;22623;-73
2023/08/15 03:19:37;;;;;;;16.20;11.60;;;;;;;17.76;77.70;99093.02;221549;1302;23136;-73
2023/08/15 03:24:40;;;;;;;15.90;11.50;;;;;;;17.69;77.79;99099.63;221463;1301;22567;-73
2023/08/15 03:29:42;;;;;;;13.20;11.60;;;;;;;17.63;78.16;99097.85;221432;1301;22566;-73
2023/08/15 03:34:45;;;;;;;11.90;10.50;;;;;;;17.57;78.17;99090.72;221478;1303;22605;-73
2023/08/15 03:39:47;;;;;;;14.50;10.50;;;;;;;17.53;78.35;99083.48;221607;1304;22613;-75
2023/08/15 03:44:49;;;;;;;11.50;9.70;;;;;;;17.52;78.30;99079.55;221573;1301;22580;-73
2023/08/15 03:49:51;;;;;;;11.00;9.90;;;;;;;17.53;78.34;99081.23;221560;1305;22569;-74
2023/08/15 03:54:53;;;;;;;14.00;10.50;;;;;;;17.55;78.58;99086.96;221562;1302;22569;-72
2023/08/15 03:59:56;;;;;;;11.80;10.10;;;;;;;17.56;78.41;99089.98;221548;1298;23136;-72
2023/08/15 04:04:58;;;;;;;11.50;10.30;;;;;;;17.58;78.59;99087.42;221561;1286;22611;-74
2023/08/15 04:10:01;;;;;;;11.00;9.90;;;;;;;17.58;78.64;99086.80;221273;1304;22655;-73
2023/08/15 04:15:05;;;;;;;14.80;11.00;;;;;;;17.60;78.80;99094.34;221259;1301;22632;-73
2023/08/15 04:20:08;;;;;;;12.30;11.00;;;;;;;17.66;78.83;99096.58;221547;1301;22587;-73
2023/08/15 04:25:10;;;;;;;12.40;11.10;;;;;;;17.76;78.80;99102.92;221503;1305;22587;-73
2023/08/15 04:30:12;;;;;;;11.90;10.20;;;;;;;17.86;78.89;99107.63;221486;1295;22574;-73
2023/08/15 04:35:14;;;;;;;14.20;10.00;;;;;;;17.95;78.82;99112.14;221583;1302;22495;-73
2023/08/15 04:40:30;;;;;;;10.70;9.70;;;;;;;18.03;78.80;99107.76;221655;1304;22550;-73
2023/08/15 04:45:33;;;;;;;11.60;10.20;;;;;;;18.14;78.77;99113.85;221646;1300;23062;-74
2023/08/15 04:50:35;;;;;;;11.00;9.60;;;;;;;18.26;78.65;99115.67;221309;1304;22568;-73
2023/08/15 04:55:38;;;;;;;10.80;9.70;;;;;;;18.41;78.43;99113.36;221568;1305;22557;-73
2023/08/15 05:00:41;;;;;;;9.40;8.20;;;;;;;18.56;78.57;99113.52;221580;1292;22629;-72
2023/08/15 05:05:43;;;;;;;10.00;9.00;;;;;;;18.74;78.48;99108.98;221596;1304;25423;-73
2023/08/15 05:10:45;;;;;;;;;;;;;;;18.91;78.49;99105.05;221534;1306;22580;-73
2023/08/15 05:15:47;;;;;;;9.90;8.80;;;;;;;19.09;78.38;99104.25;221613;1304;25268;-73
2023/08/15 05:20:49;;;;;;;8.40;7.60;;;;;;;19.28;78.48;99109.48;221288;1305;22568;-73
2023/08/15 05:25:52;;;;;;;8.50;7.20;;;;;;;19.47;78.15;99113.70;221414;1304;23338;-73
2023/08/15 05:30:54;;;;;;;8.40;7.50;;;;;;;19.66;77.92;99117.64;221636;1301;22582;-74
2023/08/15 05:35:56;;;;;;;7.70;7.10;;;;;;;19.87;77.73;99117.77;221539;1305;22728;-73
2023/08/15 05:40:58;;;;;;;7.70;6.60;;;;;;;20.09;77.41;99122.30;221310;1304;22573;-73
2023/08/15 05:46:00;;;;;;;10.40;7.00;;;;;;;20.29;77.32;99124.54;221326;1304;23330;-73
2023/08/15 05:51:02;;;;;;;9.00;7.10;;;;;;;20.52;77.16;99124.41;221584;1301;22565;-73
2023/08/15 05:56:04;;;;;;;8.40;6.00;;;;;;;20.74;76.87;99126.04;221543;1302;22579;-73
2023/08/15 06:01:06;;;;;;;6.70;6.10;;;;;;;20.97;76.58;99124.82;221511;1302;22595;-73
2023/08/15 06:06:08;;;;;;;6.20;5.60;;;;;;;21.20;76.25;99124.19;221578;1304;22628;-74
2023/08/15 06:11:10;;;;;;;6.40;5.80;;;;;;;21.41;75.68;99129.98;221546;1305;22589;-74
2023/08/15 06:16:12;;;;;;;8.50;5.80;;;;;;;21.61;75.19;99135.27;221495;1305;22553;-74
2023/08/15 06:21:14;;;;;;;6.10;5.40;;;;;;;21.83;74.97;99131.17;221472;1305;22557;-73
2023/08/15 06:26:16;;;;;;;6.60;5.90;;;;;;;22.03;74.62;99131.30;221530;1305;22564;-74
2023/08/15 06:31:18;;;;;;;6.80;6.20;;;;;;;22.25;74.20;99132.71;221539;1306;24295;-74
2023/08/15 06:36:20;;;;;;;7.00;5.80;;;;;;;22.42;74.04;99129.58;221588;1305;22760;-74
2023/08/15 06:41:24;;;;;;;8.80;7.90;;;;;;;22.65;73.91;99138.27;221569;1295;22655;-72
2023/08/15 06:46:27;;;;;;;8.10;5.60;;;;;;;22.87;73.44;99139.16;221574;1304;22565;-73
2023/08/15 06:51:29;;;;;;;6.80;5.60;;;;;;;23.10;72.84;99136.94;221391;1305;22583;-73
2023/08/15 06:56:31;;;;;;;6.70;6.10;;;;;;;23.31;72.51;99140.77;221502;1305;22565;-73
2023/08/15 07:01:33;;;;;;;7.30;6.50;;;;;;;23.53;72.52;99142.52;221491;1301;22590;-73
2023/08/15 07:06:37;;;;;;;7.10;6.40;;;;;;;23.75;72.10;99143.42;221520;1304;22605;-73
2023/08/15 07:11:39;;;;;;;7.40;6.70;;;;;;;23.98;71.68;99143.45;221534;1304;22606;-73
2023/08/15 07:16:41;;;;;;;7.50;6.40;;;;;;;24.24;71.39;99144.05;221596;1302;22596;-74
2023/08/15 07:21:45;;;;;;;6.90;6.30;;;;;;;24.49;70.71;99143.05;221624;1302;22638;-73
2023/08/15 07:26:47;;;;;;;6.30;5.70;;;;;;;24.71;69.76;99138.20;221630;1305;22599;-74
2023/08/15 07:31:49;;;;;;;6.70;6.10;;;;;;;24.94;69.22;99140.08;221555;1305;25521;-74
2023/08/15 07:36:51;;;;;;;6.60;6.00;;;;;;;25.18;68.76;99142.96;221506;1306;23030;-74
2023/08/15 07:41:53;;;;;;;7.90;6.50;;;;;;;25.44;68.15;99141.60;221485;1305;22568;-73
2023/08/15 07:46:55;;;;;;;6.90;6.40;;;;;;;25.70;67.76;99138.42;221550;1306;22572;-73
2023/08/15 07:51:57;;;;;;;6.70;6.00;;;;;;;25.90;66.88;99140.77;221531;1286;23621;-74
2023/08/15 07:56:58;;;;;;;7.50;6.80;;;;;;;26.10;66.54;99142.54;221413;1304;23659;-74
2023/08/15 08:02:00;;;;;;;7.20;6.60;;;;;;;26.30;66.31;99145.04;221611;1305;22682;-74
2023/08/15 08:07:02;;;;;;;7.20;6.40;;;;;;;26.54;65.68;99144.75;221645;1305;24927;-74
2023/08/15 08:12:08;;;;;;;7.30;6.70;;;;;;;26.77;65.60;99142.89;221486;1305;22569;-74
2023/08/15 08:17:10;;;;;;;7.50;6.00;;;;;;;26.99;65.15;99138.63;221567;1302;22612;-73
2023/08/15 08:22:12;;;;;;;7.80;5.90;;;;;;;27.20;64.40;99132.50;221597;1305;22573;-75
2023/08/15 08:27:14;;;;;;;6.20;5.60;;;;;;;27.36;63.59;99138.34;221594;1305;24395;-74
2023/08/15 08:32:16;;;;;;;5.80;5.20;;;;;;;27.54;62.90;99131.46;221647;1301;22576;-74
2023/08/15 08:37:18;;;;;;;7.90;5.60;;;;;;;27.73;61.66;99128.84;221635;1305;22599;-73
2023/08/15 08:42:20;;;;;;;5.60;5.00;;;;;;;27.91;60.78;99127.52;221624;1306;22606;-74
2023/08/15 08:47:26;;;;;;;5.90;4.80;;;;;;;28.07;60.04;99124.13;221645;1302;22581;-74
2023/08/15 08:52:29;;;;;;;13.00;11.40;;;;;;;28.24;59.69;99122.38;221604;1306;22604;-74
2023/08/15 08:57:35;;;;;;;7.10;4.80;;;;;;;28.42;58.84;99125.70;221598;1302;22564;-74
2023/08/15 09:02:37;;;;;;;5.10;4.60;;;;;;;28.60;58.13;99122.89;221606;1305;22617;-74
2023/08/15 09:07:40;;;;;;;5.50;4.40;;;;;;;28.75;56.99;99118.34;221571;1306;22789;-74
2023/08/15 09:12:45;;;;;;;5.80;4.30;;;;;;;28.83;55.51;99122.24;221524;1285;22581;-74
2023/08/15 09:17:47;;;;;;;5.00;4.60;;;;;;;28.98;56.36;99114.58;221345;1306;22564;-74
2023/08/15 09:22:50;;;;;;;4.60;4.10;;;;;;;29.19;56.07;99110.95;221600;1305;22582;-74
2023/08/15 09:27:53;;;;;;;4.50;4.20;;;;;;;29.36;54.58;99112.39;221657;1286;22573;-73
2023/08/15 09:32:55;;;;;;;5.20;3.80;;;;;;;29.50;53.94;99108.15;221558;1301;22580;-73
2023/08/15 09:38:05;;;;;;;5.40;3.80;;;;;;;29.66;53.51;99103.08;221622;1305;23040;-74
2023/08/15 09:43:08;;;;;;;4.30;3.80;;;;;;;29.79;52.94;99096.26;221626;1302;22585;-74
2023/08/15 09:48:11;;;;;;;3.80;3.50;;;;;;;29.90;52.08;99088.42;221625;1301;22590;-74
2023/08/15 09:53:14;;;;;;;3.90;3.60;;;;;;;30.01;51.01;99082.38;221524;1301;22591;-74
2023/08/15 09:58:19;;;;;;;4.10;3.80;;;;;;;30.04;49.03;99081.52;221505;1305;22585;-74
2023/08/15 10:03:34;;;;;;;4.00;3.70;;;;;;;30.09;49.57;99077.38;221562;1304;22607;-74
2023/08/15 10:08:38;;;;;;;4.70;3.80;;;;;;;30.25;49.68;99080.76;221528;1300;22609;-73
2023/08/15 10:13:41;;;;;;;8.20;4.00;;;;;;;30.37;48.75;99080.30;221598;1302;22602;-74
2023/08/15 10:18:57;;;;;;;3.50;3.20;;;;;;;30.43;48.16;99078.77;221528;1305;22610;-73
2023/08/15 10:24:03;;;;;;;3.80;3.20;;;;;;;30.42;46.86;99071.77;221483;1291;22606;-74
2023/08/15 10:29:05;;;;;;;4.80;3.70;;;;;;;30.43;46.01;99068.52;221503;1305;22568;-74
2023/08/15 10:34:09;;;;;;;4.40;4.00;;;;;;;30.52;46.73;99069.46;221522;1305;22663;-74
2023/08/15 10:39:14;;;;;;;4.60;3.40;;;;;;;30.70;47.22;99063.42;221480;1302;22588;-74
2023/08/15 10:44:16;;;;;;;6.20;3.60;;;;;;;30.87;46.77;99053.80;221525;1305;23410;-73
2023/08/15 10:49:18;;;;;;;3.90;3.60;;;;;;;30.96;46.35;99054.23;221268;1302;360379;-73
2023/08/15 10:54:20;;;;;;;9.30;3.60;;;;;;;31.04;45.81;99050.77;221525;1306;22571;-73
2023/08/15 10:59:23;;;;;;;3.40;3.20;;;;;;;31.06;44.84;99053.71;221555;1304;22601;-74
2023/08/15 11:04:25;;;;;;;4.60;3.40;;;;;;;31.10;44.64;99053.61;221467;1282;22685;-73
2023/08/15 11:09:31;;;;;;;3.50;3.20;;;;;;;31.23;45.15;99056.50;221481;1305;23042;-73
2023/08/15 11:14:33;;;;;;;3.40;3.10;;;;;;;31.37;44.50;99054.70;221480;1304;24264;-74
2023/08/15 11:19:36;;;;;;;4.00;3.40;;;;;;;31.45;44.39;99051.25;221477;1304;22587;-74
2023/08/15 11:24:38;;;;;;;3.50;3.20;;;;;;;31.60;44.00;99048.02;221409;1302;22598;-74
2023/08/15 11:29:40;;;;;;;3.70;3.00;;;;;;;31.70;43.80;99045.34;221456;1302;22585;-74
2023/08/15 11:34:42;;;;;;;3.30;3.10;;;;;;;31.82;43.66;99042.66;221183;1306;22588;-74
2023/08/15 11:39:54;;;;;;;4.00;3.60;;;;;;;31.91;43.32;99041.35;221421;1298;25322;-72
2023/08/15 11:45:06;;;;;;;4.20;3.40;;;;;;;31.98;43.50;99040.02;221418;1306;22584;-74
2023/08/15 11:50:09;;;;;;;6.10;4.20;;;;;;;32.03;43.81;99031.15;221495;1301;22564;-74
2023/08/15 11:55:12;;;;;;;4.60;3.40;;;;;;;32.11;43.18;99028.11;221411;1303;22632;-74
2023/08/15 12:00:19;;;;;;;5.00;3.30;;;;;;;32.16;43.24;99023.58;221548;1298;22570;-74
2023/08/15 12:05:21;;;;;;;3.30;3.00;;;;;;;32.26;43.13;99019.98;221674;1299;22568;-74
2023/08/15 12:10:23;;;;;;;3.30;3.00;;;;;;;32.37;42.61;99017.86;221613;1305;22644;-74
2023/08/15 12:15:25;;;;;;;3.60;3.30;;;;;;;32.50;42.92;99013.41;221583;1301;22576;-74
2023/08/15 12:20:27;;;;;;;3.30;3.10;;;;;;;32.56;41.96;99004.08;221636;1287;22569;-74
2023/08/15 12:25:29;;;;;;;3.50;3.30;;;;;;;32.61;42.13;99000.60;221526;1304;22585;-74
2023/08/15 12:30:32;;;;;;;4.00;3.40;;;;;;;32.66;41.78;98994.38;221571;1305;22582;-75
2023/08/15 12:35:34;;;;;;;3.90;3.60;;;;;;;32.67;41.21;98993.09;221610;1301;25341;-74
2023/08/15 12:40:36;;;;;;;3.30;3.10;;;;;;;32.66;40.83;98986.39;221624;1301;22567;-74
2023/08/15 12:45:38;;;;;;;3.90;3.40;;;;;;;32.74;41.11;98984.89;221638;1305;22572;-73
2023/08/15 12:50:40;;;;;;;3.70;3.50;;;;;;;32.80;41.19;98982.53;221523;1305;22583;-74
2023/08/15 12:55:43;;;;;;;3.20;4.00;;;;;;;32.83;41.44;98982.84;221661;1305;22585;-73
2023/08/15 13:00:48;;;;;;;4.00;3.60;;;;;;;32.91;41.33;98982.37;221520;1305;24401;-74
2023/08/15 13:05:51;;;;;;;3.90;3.50;;;;;;;32.97;41.04;98978.20;221584;1302;22581;-73
2023/08/15 13:10:53;;;;;;;3.90;3.60;;;;;;;33.01;41.44;98978.62;221529;1301;22741;-73
2023/08/15 13:15:54;;;;;;;4.90;3.80;;;;;;;33.00;40.78;98970.73;221447;1305;25360;-74
2023/08/15 13:20:56;;;;;;;4.40;4.00;;;;;;;32.96;41.14;98974.27;221291;1305;24266;-74
2023/08/15 13:25:58;;;;;;;4.00;3.60;;;;;;;32.99;41.11;98971.00;221611;1304;23318;-74
2023/08/15 13:31:00;;;;;;;4.00;3.70;;;;;;;32.96;41.19;98970.05;221612;1305;22602;-74
2023/08/15 13:36:02;;;;;;;4.50;4.20;;;;;;;32.94;41.77;98971.45;221608;1303;24293;-74
2023/08/15 13:41:04;;;;;;;4.00;3.70;;;;;;;32.99;41.77;98967.95;221575;1301;22598;-74
2023/08/15 13:46:07;;;;;;;4.40;4.10;;;;;;;32.97;41.31;98964.44;221599;1298;25998;-73
2023/08/15 13:51:16;;;;;;;4.60;4.20;;;;;;;32.98;41.46;98962.27;221617;1306;22559;-74
2023/08/15 13:56:18;;;;;;;5.20;4.70;;;;;;;33.00;42.26;98958.94;221639;1298;25360;-75
2023/08/15 14:01:20;;;;;;;5.10;4.40;;;;;;;33.03;42.10;98951.94;221575;1305;22561;-74
2023/08/15 14:06:22;;;;;;;4.70;4.30;;;;;;;33.03;41.99;98957.33;221462;1304;22623;-74
2023/08/15 14:11:24;;;;;;;4.30;4.00;;;;;;;33.01;41.95;98954.20;221397;1305;22595;-74
2023/08/15 14:16:26;;;;;;;6.80;4.10;;;;;;;33.06;41.92;98954.15;221601;1305;22598;-75
2023/08/15 14:21:28;;;;;;;4.60;4.30;;;;;;;33.09;42.01;98945.05;221552;1299;22685;-73
2023/08/15 14:26:30;;;;;;;5.10;4.10;;;;;;;33.12;42.35;98944.36;221488;1305;22568;-73
2023/08/15 14:31:32;;;;;;;4.40;4.00;;;;;;;33.14;42.10;98944.55;221489;1302;22552;-73
2023/08/15 14:36:35;;;;;;;4.50;4.10;;;;;;;33.11;41.80;98938.77;221504;1301;22579;-73
2023/08/15 14:41:37;;;;;;;4.90;4.40;;;;;;;33.09;41.44;98934.64;221419;1282;22553;-73
2023/08/15 14:46:40;;;;;;;4.80;4.40;;;;;;;33.05;41.64;98931.89;221438;1305;22576;-73
2023/08/15 14:51:42;;;;;;;5.00;4.40;;;;;;;33.04;41.76;98928.10;221388;1285;22614;-74
2023/08/15 14:56:44;;;;;;;4.60;4.30;;;;;;;33.00;41.68;98923.02;221463;1305;22555;-74
2023/08/15 15:01:47;;;;;;;4.30;4.00;;;;;;;32.95;41.83;98922.67;221481;1305;22653;-74
2023/08/15 15:06:48;;;;;;;5.10;4.60;;;;;;;32.93;41.72;98917.36;221557;1298;22586;-74
2023/08/15 15:11:50;;;;;;;5.00;4.60;;;;;;;32.91;42.03;98914.65;221530;1301;22568;-74
2023/08/15 15:16:54;;;;;;;4.50;4.10;;;;;;;32.93;42.09;98912.14;221540;1301;22571;-73
2023/08/15 15:21:56;;;;;;;5.00;4.60;;;;;;;32.90;42.15;98908.58;221432;1301;22575;-74
2023/08/15 15:26:59;;;;;;;4.70;4.30;;;;;;;32.88;42.26;98909.52;221469;1305;23661;-74
2023/08/15 15:32:00;;;;;;;4.90;4.30;;;;;;;32.86;42.62;98905.20;221513;1301;22590;-74
2023/08/15 15:37:02;;;;;;;5.00;4.30;;;;;;;32.84;42.85;98904.71;221557;1298;24317;-74
2023/08/15 15:42:04;;;;;;;4.90;4.40;;;;;;;32.82;43.05;98900.23;221586;1304;22599;-73
2023/08/15 15:47:07;;;;;;;4.80;4.40;;;;;;;32.75;42.22;98896.23;221619;1298;22612;-74
2023/08/15 15:52:09;;;;;;;5.00;4.60;;;;;;;32.66;42.26;98893.59;221538;1304;23292;-73
2023/08/15 15:57:11;;;;;;;5.00;4.60;;;;;;;32.59;42.39;98890.44;221536;1304;22682;-75
2023/08/15 16:02:12;;;;;;;5.80;4.90;;;;;;;32.54;42.57;98887.23;221572;1305;22648;-73
2023/08/15 16:07:15;;;;;;;5.00;4.50;;;;;;;32.46;42.57;98882.63;221422;1282;22561;-73
2023/08/15 16:12:17;;;;;;;5.40;4.90;;;;;;;32.36;42.65;98881.12;221481;1304;22656;-74
2023/08/15 16:17:19;;;;;;;5.20;4.80;;;;;;;32.26;42.89;98877.42;221545;1298;25301;-73
2023/08/15 16:22:21;;;;;;;5.20;4.80;;;;;;;32.16;43.22;98878.16;221548;1285;22594;-73
2023/08/15 16:27:24;;;;;;;5.20;4.80;;;;;;;32.05;43.34;98875.74;221537;1288;22672;-73
2023/08/15 16:32:27;;;;;;;5.70;5.20;;;;;;;31.91;43.74;98871.48;221576;1305;24294;-73
2023/08/15 16:37:29;;;;;;;6.10;5.60;;;;;;;31.76;43.69;98864.28;221608;1305;22569;-74
2023/08/15 16:42:31;;;;;;;7.50;5.20;;;;;;;31.62;43.81;98866.09;221523;1304;22689;-73
2023/08/15 16:47:33;;;;;;;5.40;5.00;;;;;;;31.46;44.14;98865.47;221589;1301;22576;-74
2023/08/15 16:52:35;;;;;;;5.60;5.10;;;;;;;31.31;44.44;98864.48;221578;1304;22583;-74
2023/08/15 16:57:37;;;;;;;5.30;4.80;;;;;;;31.16;44.78;98863.27;221614;1301;22571;-74
2023/08/15 17:02:39;;;;;;;5.80;5.20;;;;;;;31.00;45.32;98860.37;221550;1304;22722;-73
2023/08/15 17:07:41;;;;;;;6.00;5.50;;;;;;;30.84;45.68;98864.59;221603;1301;22583;-73
2023/08/15 17:12:43;;;;;;;6.00;5.40;;;;;;;30.69;46.14;98866.14;221611;1301;22568;-74
2023/08/15 17:17:45;;;;;;;6.20;5.70;;;;;;;30.54;46.53;98863.14;221465;1304;22568;-73
2023/08/15 17:22:47;;;;;;;6.00;5.40;;;;;;;30.37;46.55;98859.51;221566;1298;22571;-74
2023/08/15 17:27:50;;;;;;;7.50;6.80;;;;;;;30.17;46.69;98867.16;221601;1301;22572;-73
2023/08/15 17:32:52;;;;;;;7.00;6.40;;;;;;;29.95;47.12;98872.89;221718;1305;22669;-74
2023/08/15 17:37:54;;;;;;;8.60;7.10;;;;;;;29.70;47.71;98873.50;221547;1302;24234;-74
2023/08/15 17:42:56;;;;;;;9.00;8.20;;;;;;;29.45;48.38;98876.95;221555;1299;25593;-74
2023/08/15 17:47:57;;;;;;;8.90;7.90;;;;;;;29.19;48.98;98888.38;221497;1298;22569;-74
2023/08/15 17:53:00;;;;;;;9.00;7.30;;;;;;;28.91;49.60;98892.86;221632;1304;22601;-74
2023/08/15 17:58:02;;;;;;;7.70;7.00;;;;;;;28.62;50.00;98901.87;221616;1301;22589;-74
2023/08/15 18:03:04;;;;;;;8.00;7.30;;;;;;;28.31;50.96;98908.38;221616;1298;22974;-74
2023/08/15 18:08:06;;;;;;;8.50;7.70;;;;;;;27.99;51.63;98917.89;221596;1282;22561;-74
2023/08/15 18:13:08;;;;;;;9.00;7.90;;;;;;;27.68;52.18;98928.67;221626;1301;22568;-73
2023/08/15 18:18:10;;;;;;;9.40;7.60;;;;;;;27.40;52.68;98936.68;221583;1301;22572;-73
2023/08/15 18:23:13;;;;;;;10.30;7.90;;;;;;;27.14;53.19;98949.48;221544;1301;22579;-74
2023/08/15 18:28:14;;;;;;;11.30;8.10;;;;;;;26.89;53.76;98962.21;221605;1305;22940;-75
2023/08/15 18:33:16;;;;;;;10.90;9.10;;;;;;;26.65;54.15;98972.45;221647;1301;22691;-74
2023/08/15 18:38:19;;;;;;;11.00;8.60;;;;;;;26.42;54.78;98985.11;221500;1301;22573;-73
2023/08/15 18:43:21;;;;;;;9.70;8.70;;;;;;;26.21;55.40;98985.83;221523;1298;22702;-74
2023/08/15 18:48:25;;;;;;;12.30;9.20;;;;;;;26.03;55.84;98991.46;221557;1292;22582;-74
2023/08/15 18:53:27;;;;;;;11.70;8.80;;;;;;;25.85;56.16;98998.38;221541;1301;22568;-74
2023/08/15 18:58:29;;;;;;;13.80;9.00;;;;;;;25.67;56.48;99004.23;221536;1298;22583;-73
2023/08/15 19:03:31;;;;;;;16.30;9.40;;;;;;;25.48;57.46;99007.63;221550;1301;22936;-73
2023/08/15 19:08:36;;;;;;;14.00;9.00;;;;;;;25.28;57.90;99004.23;221634;1301;25351;-73
2023/08/15 19:13:37;;;;;;;15.40;8.80;;;;;;;25.10;58.45;99003.12;221622;1305;24356;-74
2023/08/15 19:18:39;;;;;;;12.10;9.40;;;;;;;24.92;58.93;99003.48;221599;1302;24352;-74
2023/08/15 19:23:41;;;;;;;13.50;8.80;;;;;;;24.75;59.75;99008.89;221386;1301;22626;-73
2023/08/15 19:28:43;;;;;;;13.10;8.40;;;;;;;24.58;60.31;99011.48;221478;1282;22691;-75
2023/08/15 19:33:45;;;;;;;17.10;8.80;;;;;;;24.44;60.78;99022.79;221567;1305;22579;-74
2023/08/15 19:38:47;;;;;;;9.70;8.70;;;;;;;24.29;61.25;99022.98;221602;1301;22623;-74
2023/08/15 19:43:55;;;;;;;13.90;9.40;;;;;;;24.15;61.84;99020.40;221597;1305;23725;-74
2023/08/15 19:48:57;;;;;;;11.20;8.70;;;;;;;24.02;62.45;99016.25;221581;1298;22583;-73
2023/08/15 19:53:59;;;;;;;9.80;8.80;;;;;;;23.90;62.94;99012.62;221588;1304;22568;-73
2023/08/15 19:59:03;;;;;;;10.50;9.40;;;;;;;23.79;63.37;99010.08;221571;1282;22576;-74
2023/08/15 20:04:05;;;;;;;11.20;9.50;;;;;;;23.68;63.64;99009.25;221567;1305;24203;-73
2023/08/15 20:09:07;;;;;;;10.90;9.20;;;;;;;23.60;63.94;99011.39;221589;1295;22572;-73
2023/08/15 20:14:09;;;;;;;11.90;9.90;;;;;;;23.53;64.31;99007.11;221454;1301;22740;-73
2023/08/15 20:19:11;;;;;;;10.10;8.80;;;;;;;23.48;64.90;99008.86;221402;1306;22594;-73
2023/08/15 20:24:13;;;;;;;9.80;8.70;;;;;;;23.49;65.12;99009.82;221499;1304;22631;-73
2023/08/15 20:29:15;;;;;;;10.70;8.50;;;;;;;23.45;65.18;99011.11;221501;1301;24282;-74
2023/08/15 20:34:17;;;;;;;14.80;8.80;;;;;;;23.38;65.34;99003.77;221496;1303;22639;-73
2023/08/15 20:39:19;;;;;;;11.40;8.70;;;;;;;23.29;65.62;99006.31;221498;1301;22568;-73
2023/08/15 20:44:21;;;;;;;13.30;8.70;;;;;;;23.21;65.76;99014.87;221616;1298;23396;-74
2023/08/15 20:49:23;;;;;;;9.60;8.60;;;;;;;23.12;66.18;99016.41;221630;1292;22649;-73
2023/08/15 20:54:25;;;;;;;9.90;8.90;;;;;;;23.04;66.60;99018.84;221635;1305;24419;-73
2023/08/15 20:59:27;;;;;;;10.30;8.60;;;;;;;22.97;66.93;99021.09;221646;1301;24899;-74
2023/08/15 21:04:29;;;;;;;9.80;8.70;;;;;;;22.92;67.11;99020.77;221639;1299;22959;-74
2023/08/15 21:09:32;;;;;;;9.90;8.70;;;;;;;22.86;67.46;99022.38;221600;1306;22572;-74
2023/08/15 21:14:34;;;;;;;9.90;8.90;;;;;;;22.81;67.63;99025.91;221596;1305;22576;-74
2023/08/15 21:19:36;;;;;;;10.60;9.00;;;;;;;22.77;67.84;99024.58;221564;1298;22575;-74
2023/08/15 21:24:39;;;;;;;12.70;9.20;;;;;;;22.72;68.11;99024.20;221554;1305;22594;-74
2023/08/15 21:29:41;;;;;;;10.40;8.80;;;;;;;22.66;68.41;99022.50;221551;1295;22685;-74
2023/08/15 21:34:43;;;;;;;10.60;9.50;;;;;;;22.59;68.54;99022.13;221565;1298;22576;-74
2023/08/15 21:39:45;;;;;;;12.30;9.50;;;;;;;22.54;68.82;99020.77;221338;1304;22568;-74
2023/08/15 21:44:47;;;;;;;10.00;9.00;;;;;;;22.49;69.18;99025.14;221570;1302;22587;-74
2023/08/15 21:49:49;;;;;;;11.60;10.50;;;;;;;22.44;69.47;99021.77;221556;1295;22556;-73
2023/08/15 21:54:54;;;;;;;11.80;10.60;;;;;;;22.39;69.66;99018.29;221485;1305;22588;-74
2023/08/15 21:59:56;;;;;;;11.50;10.50;;;;;;;22.36;69.65;99022.36;221504;1292;22572;-74
2023/08/15 22:04:58;;;;;;;11.00;9.90;;;;;;;22.31;69.70;99021.56;221531;1305;24250;-74
2023/08/15 22:10:00;;;;;;;10.30;9.30;;;;;;;22.27;69.97;99020.88;221550;1306;22575;-74
2023/08/15 22:15:01;;;;;;;10.50;9.50;;;;;;;22.22;70.19;99018.17;221297;1301;22598;-74
2023/08/15 22:20:05;;;;;;;10.30;9.30;;;;;;;22.16;70.44;99018.12;221500;1292;22964;-73
2023/08/15 22:25:08;;;;;;;10.90;9.90;;;;;;;22.11;70.74;99014.00;221534;1304;22568;-74
2023/08/15 22:30:10;;;;;;;10.90;9.60;;;;;;;22.05;71.08;99010.55;221567;1301;22599;-73
2023/08/15 22:35:12;;;;;;;11.20;9.80;;;;;;;21.99;70.99;99012.95;221481;1301;25434;-74
2023/08/15 22:40:14;;;;;;;10.70;9.60;;;;;;;21.94;71.16;99011.94;221510;1301;22611;-74
2023/08/15 22:45:16;;;;;;;9.80;8.80;;;;;;;21.88;71.18;99013.70;221557;1302;22542;-73
2023/08/15 22:50:18;;;;;;;10.80;9.40;;;;;;;21.81;71.16;99012.89;221440;1295;190579;-74
2023/08/15 22:55:20;;;;;;;11.00;8.70;;;;;;;21.72;71.24;99000.76;221598;1301;22580;-73
2023/08/15 23:00:22;;;;;;;11.80;9.80;;;;;;;21.61;71.39;98997.42;221620;1298;25355;-74
2023/08/15 23:05:27;;;;;;;13.10;11.60;;;;;;;21.49;71.51;99000.73;221650;1295;22578;-73
2023/08/15 23:10:33;;;;;;;12.50;11.30;;;;;;;21.36;71.95;99003.02;221596;1305;22571;-73
2023/08/15 23:15:35;;;;;;;11.90;10.80;;;;;;;21.27;72.30;99004.70;221544;1302;22572;-73